Погода Хайлендна неделю

Калифорния, США

01 - 07 сентября
  • 01сентября
    Сегодня
    +16°
    +33°
    Ясно и безоблачно
    ВремяПогодаТемператураВлажностьДавлениеВетер, м/сВероятность осадков
    02:00Ясно и безоблачно+19°C50 %727 мм1.2 м/с2 %
    05:00Ясно и безоблачно+18°C56 %726 мм0.5 м/с2 %
    08:00Ясно и безоблачно+20°C49 %727 мм0.3 м/с2 %
    11:00Ясно и безоблачно+27°C32 %728 мм0.8 м/с2 %
    14:00Ясно и безоблачно+33°C15 %728 мм3.5 м/с2 %
    17:00Ясно и безоблачно+32°C20 %726 мм5.9 м/с2 %
    20:00Ясно и безоблачно+25°C26 %727 мм3.7 м/с2 %
    23:00Ясно и безоблачно+21°C42 %728 мм1.9 м/с2 %
  • 02сентября
    Среда
    +16°
    +33°
    Ясно и безоблачно
    ВремяПогодаТемператураВлажностьДавлениеВетер, м/сВероятность осадков
    02:00Ясно и безоблачно+18°C48 %728 мм0.6 м/с2 %
    05:00Ясно и безоблачно+17°C48 %727 мм0.1 м/с2 %
    08:00Ясно и безоблачно+18°C43 %727 мм0.1 м/с2 %
    11:00Ясно и безоблачно+26°C28 %728 мм0.5 м/с2 %
    14:00Ясно и безоблачно+32°C14 %727 мм3.3 м/с2 %
    17:00Ясно и безоблачно+31°C17 %726 мм5.4 м/с2 %
    20:00Ясно и безоблачно+25°C23 %726 мм4.0 м/с2 %
    23:00Ясно и безоблачно+21°C41 %727 мм1.8 м/с2 %
  • 03сентября
    Четверг
    +16°
    +32°
    Ясно и безоблачно
    ВремяПогодаТемператураВлажностьДавлениеВетер, м/сВероятность осадков
    02:00Ясно и безоблачно+19°C45 %726 мм0.7 м/с2 %
    05:00Ясно и безоблачно+17°C46 %726 мм0.0 м/с2 %
    08:00Ясно и безоблачно+19°C41 %726 мм0.0 м/с2 %
    11:00Ясно и безоблачно+26°C27 %727 мм0.2 м/с2 %
    14:00Ясно и безоблачно+31°C18 %725 мм3.1 м/с2 %
    17:00Ясно и безоблачно+30°C23 %725 мм5.3 м/с2 %
    20:00Ясно и безоблачно+24°C35 %725 мм4.1 м/с2 %
    23:00Ясно и безоблачно+21°C53 %725 мм1.8 м/с2 %
  • 04сентября
    Пятница
    +18°
    +33°
    Ясно и безоблачно
    ВремяПогодаТемператураВлажностьДавлениеВетер, м/сВероятность осадков
    02:00Ясно и безоблачно+19°C63 %725 мм0.4 м/с2 %
    05:00Ясно и безоблачно+17°C63 %725 мм0.0 м/с2 %
    08:00Ясно и безоблачно+18°C47 %725 мм0.0 м/с2 %
    11:00Ясно и безоблачно+26°C27 %727 мм0.0 м/с2 %
    14:00Ясно и безоблачно+32°C21 %725 мм2.7 м/с2 %
    17:00Ясно и безоблачно+31°C22 %725 мм4.9 м/с2 %
    20:00Ясно и безоблачно+25°C31 %726 мм3.7 м/с2 %
    23:00Ясно и безоблачно+22°C47 %726 мм1.5 м/с3 %
  • 05сентября
    Суббота
    +20°
    +35°
    Ясно и безоблачно
    ВремяПогодаТемператураВлажностьДавлениеВетер, м/сВероятность осадков
    02:00Ясно и безоблачно+19°C46 %726 мм0.4 м/с5 %
    05:00Ясно и безоблачно+18°C44 %725 мм0.1 м/с9 %
    08:00Ясно и безоблачно+21°C36 %726 мм0.0 м/с18 %
    11:00Ясно и безоблачно+29°C17 %727 мм0.0 м/с22 %
    14:00Ясно и безоблачно+34°C19 %726 мм3.3 м/с28 %
    17:00Ясно и безоблачно+32°C20 %725 мм5.0 м/с29 %
    20:00Ясно и безоблачно+27°C24 %726 мм3.3 м/с26 %
    23:00Облачно с прояснениями+24°C38 %727 мм1.3 м/с25 %
  • 06сентября
    Воскресенье
    +20°
    +34°
    Ясно и безоблачно
    ВремяПогодаТемператураВлажностьДавлениеВетер, м/сВероятность осадков
    05:00Небольшая облачность+21°C64 %725 мм0.4 м/с27 %
    11:00Ясно и безоблачно+29°C42 %727 мм0.3 м/с24 %
    17:00Ясно и безоблачно+33°C59 %725 мм3.9 м/с39 %
    23:00Ясно и безоблачно+25°C52 %727 мм1.3 м/с33 %
  • 07сентября
    Понедельник
    +20°
    +34°
    Ясно и безоблачно
    ВремяПогодаТемператураВлажностьДавлениеВетер, м/сВероятность осадков
    05:00Ясно и безоблачно+21°C51 %726 мм1.4 м/с22 %
    11:00Ясно и безоблачно+30°C24 %727 мм2.5 м/с18 %
    17:00Ясно и безоблачно+32°C22 %725 мм3.2 м/с37 %
    23:00Ясно и безоблачно+24°C46 %726 мм1.4 м/с26 %
Мы используем cookies
Соглашаюсь